createdAt,value
2023-01-18T00:02:47.007Z,90202.50
2023-01-18T00:06:09.767Z,90194.81
2023-01-18T00:09:24.896Z,90206.69
2023-01-18T00:12:46.724Z,90206.38
2023-01-18T00:16:14.793Z,90201.59
2023-01-18T00:19:36.683Z,90204.72
2023-01-18T00:22:51.805Z,90216.06
2023-01-18T00:26:14.745Z,90212.06
2023-01-18T00:29:29.777Z,90220.97
2023-01-18T00:32:51.737Z,90235.31
2023-01-18T00:36:14.696Z,90219.88
2023-01-18T00:39:36.727Z,90232.03
2023-01-18T00:43:10.287Z,90219.38
2023-01-18T00:46:33.654Z,90203.78
2023-01-18T00:49:55.660Z,90228.00
2023-01-18T00:53:10.926Z,90207.50
2023-01-18T00:56:33.685Z,90201.09
2023-01-18T00:59:55.691Z,90190.16
2023-01-18T01:03:10.833Z,90202.53
2023-01-18T01:06:51.713Z,90210.22
2023-01-18T01:10:16.649Z,90203.03
2023-01-18T01:13:50.713Z,90192.19
2023-01-18T01:17:30.695Z,90199.81
2023-01-18T01:21:10.671Z,90195.09
2023-01-18T01:24:44.296Z,90196.53
2023-01-18T01:28:05.695Z,90203.44
2023-01-18T01:31:21.678Z,90211.53
2023-01-18T01:34:36.789Z,90222.28
2023-01-18T01:37:58.660Z,90199.00
2023-01-18T01:41:30.648Z,90195.19
2023-01-18T01:44:53.696Z,90210.19
2023-01-18T01:48:16.645Z,90201.16
2023-01-18T01:51:33.014Z,90191.50
2023-01-18T01:54:54.715Z,90177.09
2023-01-18T01:58:13.181Z,90173.50
2023-01-18T02:01:34.727Z,90182.72
2023-01-18T02:05:00.635Z,90171.53
2023-01-18T02:08:22.254Z,90158.78
2023-01-18T02:11:43.638Z,90151.78
2023-01-18T02:15:05.668Z,90149.31
2023-01-18T02:18:27.650Z,90140.47
2023-01-18T02:21:45.758Z,90150.00
2023-01-18T02:25:07.620Z,90141.50
2023-01-18T02:28:37.810Z,90153.28
2023-01-18T02:32:17.598Z,90153.38
2023-01-18T02:35:49.619Z,90161.50
2023-01-18T02:39:29.613Z,90155.81
2023-01-18T02:43:11.593Z,90152.13
2023-01-18T02:46:37.601Z,90138.13
2023-01-18T02:49:59.583Z,90147.66
2023-01-18T02:53:21.626Z,90168.34
2023-01-18T02:56:36.736Z,90169.38
2023-01-18T03:00:01.635Z,90167.97
2023-01-18T03:03:24.644Z,90161.59
2023-01-18T03:06:42.028Z,90153.69
2023-01-18T03:10:03.616Z,90153.69
2023-01-18T03:13:25.790Z,90153.97
2023-01-18T03:17:04.611Z,90171.63
2023-01-18T03:20:32.620Z,90166.72
2023-01-18T03:23:56.569Z,90180.50
2023-01-18T03:27:38.611Z,90155.06
2023-01-18T03:31:20.774Z,90156.22
2023-01-18T03:34:45.611Z,90167.78
2023-01-18T03:38:09.581Z,90162.22
2023-01-18T03:41:33.610Z,90149.97
2023-01-18T03:44:59.601Z,90166.53
2023-01-18T03:48:15.114Z,90161.31
2023-01-18T03:51:39.606Z,90171.88
2023-01-18T03:55:03.673Z,90183.47
2023-01-18T03:58:26.578Z,90172.72
2023-01-18T04:01:50.710Z,90169.06
2023-01-18T04:05:12.592Z,90161.22
2023-01-18T04:08:27.978Z,90159.69
2023-01-18T04:11:49.559Z,90162.16
2023-01-18T04:15:11.583Z,90153.03
2023-01-18T04:18:26.728Z,90158.31
2023-01-18T04:21:48.581Z,90162.66
2023-01-18T04:25:03.657Z,90180.94
2023-01-18T04:28:35.542Z,90180.56
2023-01-18T04:31:57.560Z,90182.38
2023-01-18T04:35:19.558Z,90180.53
2023-01-18T04:38:34.609Z,90198.16
2023-01-18T04:41:57.365Z,90192.22
2023-01-18T04:45:14.173Z,90195.66
2023-01-18T04:48:35.542Z,90197.44
2023-01-18T04:51:51.692Z,90202.84
2023-01-18T04:55:13.517Z,90204.59
2023-01-18T04:58:35.572Z,90214.38
2023-01-18T05:01:57.567Z,90227.47
2023-01-18T05:05:19.591Z,90202.69
2023-01-18T05:08:35.094Z,90213.13
2023-01-18T05:11:56.517Z,90203.16
2023-01-18T05:15:18.529Z,90201.41
2023-01-18T05:18:40.566Z,90205.53
2023-01-18T05:22:02.508Z,90189.81
2023-01-18T05:25:24.534Z,90194.16
2023-01-18T05:28:46.562Z,90187.44
2023-01-18T05:32:08.556Z,90212.78
2023-01-18T05:35:23.790Z,90184.25
2023-01-18T05:38:45.529Z,90201.69
2023-01-18T05:42:07.529Z,90203.16
2023-01-18T05:45:29.561Z,90193.78
2023-01-18T05:48:51.552Z,90209.75
2023-01-18T05:52:14.510Z,90194.88
2023-01-18T05:55:36.568Z,90197.41
2023-01-18T05:58:58.491Z,90215.22
2023-01-18T06:02:20.547Z,90205.69
2023-01-18T06:05:35.564Z,90214.91
2023-01-18T06:08:57.507Z,90239.91
2023-01-18T06:12:12.603Z,90245.97
2023-01-18T06:15:34.511Z,90251.84
2023-01-18T06:18:56.473Z,90258.72
2023-01-18T06:22:18.505Z,90254.28
2023-01-18T06:25:40.541Z,90273.22
2023-01-18T06:29:02.510Z,90265.78
2023-01-18T06:32:24.487Z,90259.16
2023-01-18T06:35:46.518Z,90257.13
2023-01-18T06:39:01.607Z,90265.78
2023-01-18T06:42:23.564Z,90261.81
2023-01-18T06:45:38.668Z,90264.03
2023-01-18T06:49:00.537Z,90273.28
2023-01-18T06:52:22.516Z,90295.91
2023-01-18T06:55:37.747Z,90307.22
2023-01-18T06:58:59.525Z,90319.78
2023-01-18T07:02:16.600Z,90328.84
2023-01-18T07:05:38.515Z,90317.78
2023-01-18T07:09:00.445Z,90314.38
2023-01-18T07:12:22.507Z,90313.78
2023-01-18T07:15:37.670Z,90304.91
2023-01-18T07:18:59.506Z,90309.81
2023-01-18T07:22:21.485Z,90328.13
2023-01-18T07:25:43.457Z,90329.91
2023-01-18T07:28:58.754Z,90324.94
2023-01-18T07:32:20.445Z,90329.53
2023-01-18T07:35:42.509Z,90314.28
2023-01-18T07:38:57.621Z,90311.84
2023-01-18T07:42:19.427Z,90330.03
2023-01-18T07:45:34.580Z,90314.59
2023-01-18T07:48:56.471Z,90310.66
2023-01-18T07:52:18.512Z,90314.53
2023-01-18T07:55:40.487Z,90313.72
2023-01-18T07:59:02.456Z,90341.53
2023-01-18T08:02:17.762Z,90340.88
2023-01-18T08:05:39.485Z,90337.00
2023-01-18T08:08:55.455Z,90355.41
2023-01-18T08:12:20.460Z,90361.84
2023-01-18T08:15:42.481Z,90376.97
2023-01-18T08:18:57.562Z,90391.13
2023-01-18T08:22:19.444Z,90398.50
2023-01-18T08:25:35.540Z,90409.03
2023-01-18T08:28:57.405Z,90422.94
2023-01-18T08:32:19.412Z,90422.78
2023-01-18T08:35:40.797Z,90436.22
2023-01-18T08:39:06.458Z,90444.47
2023-01-18T08:42:21.638Z,90428.34
2023-01-18T08:45:43.455Z,90422.34
2023-01-18T08:49:07.456Z,90437.53
2023-01-18T08:52:22.508Z,90422.28
2023-01-18T08:55:44.432Z,90446.38
2023-01-18T08:59:06.425Z,90439.16
2023-01-18T09:02:21.863Z,90431.22
2023-01-18T09:05:43.476Z,90426.16
2023-01-18T09:08:59.495Z,90415.44
2023-01-18T09:12:21.419Z,90414.81
2023-01-18T09:15:37.240Z,90425.94
2023-01-18T09:18:59.413Z,90415.94
2023-01-18T09:22:21.397Z,90424.38
2023-01-18T09:25:36.762Z,90437.19
2023-01-18T09:28:59.429Z,90447.31
2023-01-18T09:32:14.495Z,90451.47
2023-01-18T09:35:36.398Z,90452.28
2023-01-18T09:38:58.410Z,90442.81
2023-01-18T09:42:28.436Z,90451.00
2023-01-18T09:45:44.477Z,90460.84
2023-01-18T09:49:07.422Z,90457.31
2023-01-18T09:52:31.802Z,90447.94
2023-01-18T09:56:12.392Z,90452.91
2023-01-18T09:59:43.403Z,90449.91
2023-01-18T10:03:01.529Z,90453.53
2023-01-18T10:06:30.423Z,90459.34
2023-01-18T10:09:51.036Z,90462.09
2023-01-18T10:13:37.388Z,90470.25
2023-01-18T10:16:56.560Z,90482.50
2023-01-18T10:20:33.468Z,90482.56
2023-01-18T10:24:16.942Z,90477.91
2023-01-18T10:27:38.439Z,90484.72
2023-01-18T10:31:03.906Z,90483.81
2023-01-18T10:34:31.381Z,90482.56
2023-01-18T10:37:46.798Z,90480.97
2023-01-18T10:41:10.422Z,90475.78
2023-01-18T10:44:32.321Z,90474.41
2023-01-18T10:47:50.460Z,90465.84
2023-01-18T10:51:16.173Z,90472.72
2023-01-18T10:54:33.453Z,90474.13
2023-01-18T10:58:01.508Z,90474.44
2023-01-18T11:01:22.472Z,90488.91
2023-01-18T11:04:44.359Z,90473.22
2023-01-18T11:08:25.389Z,90470.50
2023-01-18T11:11:58.886Z,90473.69
2023-01-18T11:15:29.325Z,90461.47
2023-01-18T11:18:55.648Z,90452.22
2023-01-18T11:22:24.375Z,90462.66
2023-01-18T11:25:52.324Z,90464.50
2023-01-18T11:29:08.446Z,90468.75
2023-01-18T11:32:31.276Z,90468.84
2023-01-18T11:35:46.413Z,90479.38
2023-01-18T11:39:32.387Z,90482.13
2023-01-18T11:42:54.355Z,90486.25
2023-01-18T11:46:20.854Z,90492.56
2023-01-18T11:49:49.351Z,90494.44
2023-01-18T11:53:14.303Z,90494.84
2023-01-18T11:56:54.319Z,90489.50
2023-01-18T12:00:16.428Z,90492.91
2023-01-18T12:03:51.322Z,90484.34
2023-01-18T12:07:28.305Z,90493.19
2023-01-18T12:11:07.318Z,90480.41
2023-01-18T12:14:40.127Z,90518.72
2023-01-18T12:18:14.094Z,90493.91
2023-01-18T12:21:32.347Z,90507.75
2023-01-18T12:25:05.314Z,90515.44
2023-01-18T12:28:23.607Z,90509.78
2023-01-18T12:31:51.374Z,90510.56
